Time;durP1;ratioP1;P1;durP2;ratioP2;P2;SDS_P1;SDS_P2;PMS_P1;PMS_P2;Temp;Humidity;BMP_temperature;BMP_pressure;BME280_temperature;BME280_humidity;BME280_pressure;Samples;Min_cycle;Max_cycle;Signal;HPM_P1;HPM_P2
2021/10/10 00:01:26;;;;;;;17.85;11.77;;;;;;;18.97;64.83;101873.81;5011984;28;20508;-93
2021/10/10 00:03:52;;;;;;;16.98;11.90;;;;;;;18.99;64.95;101884.34;4994675;28;20050;-94
2021/10/10 00:06:17;;;;;;;14.43;11.10;;;;;;;18.99;64.86;101869.22;5011025;28;20057;-93
2021/10/10 00:08:42;;;;;;;13.00;9.93;;;;;;;19.06;64.77;101882.06;4994583;28;20021;-93
2021/10/10 00:11:08;;;;;;;16.13;10.15;;;;;;;19.00;64.87;101878.91;5012254;28;20030;-93
2021/10/10 00:13:33;;;;;;;13.35;9.27;;;;;;;18.94;65.46;101881.22;4994622;28;20064;-93
2021/10/10 00:15:59;;;;;;;16.08;8.90;;;;;;;18.91;65.36;101871.66;5011789;28;20045;-94
2021/10/10 00:18:24;;;;;;;12.80;9.25;;;;;;;18.93;65.41;101869.72;5012093;28;20385;-94
2021/10/10 00:20:49;;;;;;;13.18;9.10;;;;;;;18.98;65.52;101875.53;5010865;28;20076;-93
2021/10/10 00:23:15;;;;;;;12.38;9.38;;;;;;;18.97;65.25;101879.13;4994396;28;20526;-93
2021/10/10 00:25:40;;;;;;;12.10;9.63;;;;;;;18.90;65.97;101877.97;4994685;28;20468;-93
2021/10/10 00:28:05;;;;;;;13.82;10.20;;;;;;;19.20;64.97;101868.47;4994643;28;20061;-93
2021/10/10 00:30:31;;;;;;;14.07;10.15;;;;;;;19.19;64.85;101880.06;5011920;28;20022;-94
2021/10/10 00:32:56;;;;;;;14.10;9.80;;;;;;;19.21;64.86;101878.13;5010854;28;20627;-93
2021/10/10 00:35:22;;;;;;;12.20;8.93;;;;;;;19.08;65.44;101886.28;5012221;28;20021;-94
2021/10/10 00:37:47;;;;;;;12.85;9.50;;;;;;;19.09;65.19;101898.59;4994434;28;20034;-93
2021/10/10 00:40:13;;;;;;;12.35;8.48;;;;;;;19.16;65.24;101888.31;5011473;28;20113;-92
2021/10/10 00:42:39;;;;;;;11.80;8.77;;;;;;;19.24;65.20;101890.38;5011930;28;20045;-93
2021/10/10 00:45:05;;;;;;;13.48;9.75;;;;;;;19.14;65.44;101891.09;5011929;28;20066;-93
2021/10/10 00:47:31;;;;;;;14.40;8.80;;;;;;;18.78;66.72;101897.53;4994060;28;20054;-93
2021/10/10 00:49:56;;;;;;;12.40;9.05;;;;;;;19.01;66.12;101893.88;5011718;28;20635;-92
2021/10/10 00:52:22;;;;;;;11.45;9.13;;;;;;;19.14;65.70;101896.44;5014278;28;20022;-93
2021/10/10 00:54:49;;;;;;;13.13;9.80;;;;;;;19.11;65.49;101896.66;4998000;28;20069;-93
2021/10/10 00:57:15;;;;;;;14.60;10.20;;;;;;;19.28;64.97;101899.78;5015592;28;20026;-93
2021/10/10 00:59:45;;;;;;;12.77;10.02;;;;;;;19.33;64.70;101897.59;5015304;28;20029;-92
2021/10/10 01:02:14;;;;;;;12.93;10.20;;;;;;;19.46;64.49;101895.63;5015274;28;21253;-93
2021/10/10 01:04:41;;;;;;;14.02;10.05;;;;;;;19.36;64.40;101900.84;5015398;28;20021;-93
2021/10/10 01:07:07;;;;;;;14.95;10.18;;;;;;;19.47;64.41;101892.00;5015456;28;20488;-93
2021/10/10 01:09:35;;;;;;;13.65;9.50;;;;;;;19.53;64.24;101890.63;4997947;28;20049;-93
2021/10/10 01:12:01;;;;;;;16.05;11.85;;;;;;;19.53;63.81;101887.97;4997798;28;20060;-93
2021/10/10 01:14:27;;;;;;;14.30;11.30;;;;;;;19.50;63.84;101890.88;5015396;28;20534;-92
2021/10/10 01:16:52;;;;;;;21.30;11.77;;;;;;;19.47;64.01;101892.00;5015438;28;20030;-94
2021/10/10 01:19:18;;;;;;;18.25;13.52;;;;;;;19.48;63.93;101892.84;5013908;28;20033;-92
2021/10/10 01:21:43;;;;;;;15.35;11.90;;;;;;;19.45;63.56;101887.75;4997651;28;20066;-94
2021/10/10 01:24:08;;;;;;;15.45;12.02;;;;;;;19.49;63.90;101891.84;5015089;28;20080;-94
2021/10/10 01:26:34;;;;;;;19.63;13.82;;;;;;;19.49;63.54;101886.53;5015038;28;20084;-93
2021/10/10 01:28:59;;;;;;;17.67;12.60;;;;;;;19.47;63.25;101878.69;5014651;28;20419;-93
2021/10/10 01:31:24;;;;;;;18.42;13.35;;;;;;;19.43;63.40;101879.88;4997358;28;20108;-91
2021/10/10 01:33:50;;;;;;;19.50;13.52;;;;;;;19.49;63.32;101875.88;5015302;28;20061;-92
2021/10/10 01:36:16;;;;;;;20.52;15.63;;;;;;;19.47;63.06;101880.47;5013607;28;20026;-92
2021/10/10 01:38:42;;;;;;;23.85;16.25;;;;;;;19.32;63.71;101875.44;5014859;28;20026;-94
2021/10/10 01:41:09;;;;;;;21.00;15.20;;;;;;;19.27;63.77;101868.81;5014982;28;20040;-94
2021/10/10 01:43:35;;;;;;;21.77;15.77;;;;;;;19.36;63.46;101873.38;5014881;28;20022;-93
2021/10/10 01:46:00;;;;;;;19.52;13.80;;;;;;;19.31;63.83;101879.09;4997293;28;20030;-93
2021/10/10 01:48:26;;;;;;;17.67;13.25;;;;;;;19.21;64.38;101864.81;4997247;28;20030;-93
2021/10/10 01:50:51;;;;;;;19.75;13.43;;;;;;;19.18;64.68;101875.72;5014749;28;20499;-94
2021/10/10 01:53:17;;;;;;;21.05;14.32;;;;;;;19.21;64.32;101880.78;4997077;28;20026;-93
2021/10/10 01:55:43;;;;;;;20.20;13.52;;;;;;;19.19;64.74;101878.28;4996576;28;20169;-94
2021/10/10 01:58:09;;;;;;;18.58;13.05;;;;;;;19.15;64.79;101871.47;5014419;28;20026;-92
2021/10/10 02:00:35;;;;;;;15.68;12.02;;;;;;;18.98;65.53;101883.50;5014361;28;20029;-93
2021/10/10 02:03:01;;;;;;;19.25;12.45;;;;;;;18.81;66.40;101884.00;4996662;28;20044;-94
2021/10/10 02:05:26;;;;;;;19.83;13.90;;;;;;;19.14;65.26;101884.94;5014580;28;20022;-93
2021/10/10 02:07:52;;;;;;;15.38;12.50;;;;;;;19.27;64.99;101885.63;4995450;28;20017;-94
2021/10/10 02:10:18;;;;;;;22.77;16.85;;;;;;;19.36;65.31;101895.53;4996220;28;20487;-93
2021/10/10 02:12:44;;;;;;;23.02;14.95;;;;;;;19.39;65.22;101884.63;5014111;28;20022;-93
2021/10/10 02:15:11;;;;;;;24.42;16.52;;;;;;;19.45;65.45;101882.41;5012998;28;20025;-92
2021/10/10 02:17:37;;;;;;;29.48;18.08;;;;;;;19.50;65.09;101880.25;5014136;28;20101;-93
2021/10/10 02:20:07;;;;;;;29.50;17.48;;;;;;;19.57;65.38;101886.75;5013754;28;20026;-95
2021/10/10 02:22:32;;;;;;;29.25;20.17;;;;;;;19.39;66.78;101884.63;5012749;28;20022;-92
2021/10/10 02:24:58;;;;;;;30.88;19.27;;;;;;;19.19;67.64;101869.41;5012939;28;20104;-94
2021/10/10 02:27:23;;;;;;;29.70;19.27;;;;;;;19.26;67.75;101878.63;5013987;28;20025;-93
2021/10/10 02:29:49;;;;;;;25.70;17.33;;;;;;;19.35;67.69;101880.53;5012591;28;20534;-93
2021/10/10 02:32:14;;;;;;;30.35;19.08;;;;;;;19.55;66.90;101864.69;5013745;28;20053;-93
2021/10/10 02:34:39;;;;;;;27.00;18.80;;;;;;;19.62;66.51;101871.22;5012423;28;20030;-93
2021/10/10 02:37:05;;;;;;;27.88;18.17;;;;;;;19.57;66.72;101866.28;4996125;28;20073;-93
2021/10/10 02:39:31;;;;;;;25.38;17.05;;;;;;;19.67;66.62;101876.16;4996254;28;20030;-92
2021/10/10 02:41:56;;;;;;;29.63;20.10;;;;;;;19.71;66.54;101867.84;5013747;28;20026;-92
2021/10/10 02:44:21;;;;;;;26.25;18.73;;;;;;;19.82;66.18;101864.25;5013670;28;20600;-93
2021/10/10 02:46:47;;;;;;;28.48;19.10;;;;;;;19.74;66.36;101864.91;4995433;28;20064;-94
2021/10/10 02:49:12;;;;;;;29.92;18.80;;;;;;;19.77;66.23;101854.00;5013361;28;20455;-93
2021/10/10 02:51:37;;;;;;;26.20;18.77;;;;;;;19.95;65.96;101864.06;5013319;28;20026;-93
2021/10/10 02:54:03;;;;;;;23.63;16.98;;;;;;;19.90;66.22;101864.44;5013383;28;20033;-93
2021/10/10 02:56:28;;;;;;;24.73;16.98;;;;;;;19.86;66.26;101860.34;4995664;28;20369;-94
2021/10/10 02:58:53;;;;;;;26.98;18.50;;;;;;;19.76;66.80;101854.09;5013153;28;20104;-93
2021/10/10 03:01:19;;;;;;;28.52;18.27;;;;;;;19.72;66.86;101847.34;4995736;28;20073;-93
2021/10/10 03:03:44;;;;;;;26.17;18.52;;;;;;;19.65;67.16;101852.31;5013422;28;20080;-93
2021/10/10 03:06:10;;;;;;;25.73;17.38;;;;;;;19.64;67.08;101849.78;5013504;28;20037;-93
2021/10/10 03:08:38;;;;;;;24.25;17.70;;;;;;;19.56;67.01;101853.91;5013227;28;20022;-92
2021/10/10 03:11:04;;;;;;;27.23;17.70;;;;;;;19.60;66.56;101843.84;5013169;28;20022;-93
2021/10/10 03:13:30;;;;;;;24.27;17.50;;;;;;;19.72;66.31;101850.00;4995280;28;20544;-92
2021/10/10 03:15:57;;;;;;;22.77;16.17;;;;;;;19.65;66.42;101843.47;5012364;28;20113;-93
2021/10/10 03:18:22;;;;;;;24.27;17.50;;;;;;;19.56;66.69;101837.09;4995262;28;20026;-94
2021/10/10 03:20:48;;;;;;;21.27;16.15;;;;;;;19.57;66.71;101838.81;4995072;28;20025;-93
2021/10/10 03:23:13;;;;;;;24.90;16.35;;;;;;;19.59;66.50;101843.03;5013059;28;20037;-93
2021/10/10 03:25:38;;;;;;;25.25;16.80;;;;;;;19.56;66.79;101847.75;5012877;28;20121;-94
2021/10/10 03:28:04;;;;;;;23.20;16.88;;;;;;;19.44;66.33;101844.28;5012883;28;20025;-93
2021/10/10 03:30:29;;;;;;;22.38;16.90;;;;;;;19.47;66.73;101841.38;5013058;28;20030;-93
2021/10/10 03:32:54;;;;;;;24.38;18.42;;;;;;;19.43;66.76;101850.56;4995374;28;20582;-93
2021/10/10 03:35:20;;;;;;;21.95;16.60;;;;;;;19.39;66.83;101852.69;4995203;28;20068;-93
2021/10/10 03:37:45;;;;;;;26.75;17.48;;;;;;;19.34;66.49;101844.19;5012750;28;20037;-93
2021/10/10 03:40:12;;;;;;;24.10;17.55;;;;;;;19.39;66.75;101847.34;4994929;28;20030;-92
2021/10/10 03:42:38;;;;;;;24.70;17.73;;;;;;;19.32;67.13;101854.13;5012222;28;20026;-94
2021/10/10 03:45:05;;;;;;;23.15;16.55;;;;;;;19.32;66.98;101851.47;5012811;28;20031;-93
2021/10/10 03:47:30;;;;;;;24.45;17.88;;;;;;;19.12;67.75;101847.78;5012353;28;20061;-94
2021/10/10 03:49:56;;;;;;;22.27;16.42;;;;;;;19.37;67.27;101853.75;4994929;28;20057;-95
2021/10/10 03:52:21;;;;;;;23.58;17.73;;;;;;;19.42;67.10;101856.91;4995282;28;20472;-94
2021/10/10 03:57:24;;;;;;;23.38;16.27;;;;;;;19.13;68.20;101852.13;5012305;28;20025;-93
2021/10/10 04:00:03;;;;;;;21.75;15.68;;;;;;;19.06;69.04;101856.28;4994867;28;20026;-92
2021/10/10 04:02:28;;;;;;;22.42;16.55;;;;;;;19.06;69.38;101861.59;4994927;28;20153;-92
2021/10/10 04:04:54;;;;;;;25.30;17.83;;;;;;;19.19;69.06;101854.31;5012457;28;20026;-94
2021/10/10 04:07:20;;;;;;;24.75;15.77;;;;;;;19.18;69.11;101865.91;4994899;28;20030;-93
2021/10/10 04:09:46;;;;;;;24.33;15.52;;;;;;;19.25;68.80;101858.25;4994413;28;20022;-93
2021/10/10 04:12:12;;;;;;;29.70;18.10;;;;;;;19.17;69.02;101858.91;4995015;28;20025;-94
2021/10/10 04:14:37;;;;;;;25.40;16.95;;;;;;;19.28;68.91;101862.50;4995018;28;20029;-93
2021/10/10 04:17:03;;;;;;;28.95;17.88;;;;;;;19.47;68.35;101868.03;4994941;28;20036;-94
2021/10/10 04:19:28;;;;;;;27.58;16.08;;;;;;;19.57;67.65;101862.78;5012234;28;20480;-94
2021/10/10 04:21:54;;;;;;;25.60;16.77;;;;;;;19.58;67.56;101857.31;4994902;28;20045;-95
2021/10/10 04:24:19;;;;;;;26.52;16.75;;;;;;;19.35;68.79;101864.56;4994952;28;20022;-93
2021/10/10 04:26:44;;;;;;;26.88;15.98;;;;;;;19.46;68.45;101855.66;4997664;28;20030;-92
2021/10/10 04:29:10;;;;;;;25.75;17.08;;;;;;;19.68;67.53;101862.72;4998570;28;20068;-94
2021/10/10 04:31:35;;;;;;;22.17;15.00;;;;;;;19.70;67.18;101850.09;4998553;28;20476;-93
2021/10/10 04:34:01;;;;;;;21.55;16.30;;;;;;;19.71;67.14;101858.97;5016032;28;20030;-93
2021/10/10 04:36:26;;;;;;;27.77;17.20;;;;;;;19.63;67.41;101859.59;4998266;28;20060;-93
2021/10/10 04:38:51;;;;;;;25.58;17.25;;;;;;;19.71;67.35;101862.50;5015865;28;20468;-93
2021/10/10 04:41:17;;;;;;;19.70;14.20;;;;;;;19.83;67.15;101868.63;4998571;28;20088;-94
2021/10/10 04:43:42;;;;;;;23.85;16.73;;;;;;;19.86;66.88;101859.50;4998463;28;20535;-92
2021/10/10 04:46:07;;;;;;;30.67;17.05;;;;;;;19.56;68.04;101863.75;5016702;28;20109;-92
2021/10/10 04:48:33;;;;;;;29.00;17.10;;;;;;;19.44;68.36;101862.09;4998854;28;20072;-91
2021/10/10 04:50:58;;;;;;;24.27;15.60;;;;;;;19.41;68.35;101855.19;5016317;28;20465;-92
2021/10/10 04:53:23;;;;;;;26.58;15.65;;;;;;;19.46;67.81;101862.81;5015570;28;20492;-92
2021/10/10 04:55:49;;;;;;;23.02;15.68;;;;;;;19.55;68.01;101857.56;5015964;28;20064;-93
2021/10/10 04:58:14;;;;;;;23.13;16.35;;;;;;;19.60;67.98;101857.19;5015627;28;20025;-92
2021/10/10 05:00:40;;;;;;;22.95;15.13;;;;;;;19.65;67.54;101854.13;5015641;28;20026;-92
2021/10/10 05:03:05;;;;;;;21.77;15.00;;;;;;;19.53;67.91;101874.63;5015622;28;20029;-92
2021/10/10 05:05:30;;;;;;;22.52;15.20;;;;;;;19.51;67.88;101849.94;4997758;28;20464;-92
2021/10/10 05:07:56;;;;;;;20.70;14.25;;;;;;;19.58;67.62;101853.81;5015087;28;20037;-93
2021/10/10 05:10:21;;;;;;;19.17;13.88;;;;;;;19.69;67.23;101856.41;4997955;28;20030;-93
2021/10/10 05:12:46;;;;;;;24.08;14.80;;;;;;;19.62;67.49;101861.41;4997816;28;20022;-94
2021/10/10 05:15:12;;;;;;;20.10;13.48;;;;;;;19.55;67.79;101875.34;5015450;28;20101;-93
2021/10/10 05:17:37;;;;;;;19.10;13.40;;;;;;;19.40;68.41;101867.66;5015301;28;20156;-92
2021/10/10 05:20:03;;;;;;;23.42;14.82;;;;;;;19.36;68.44;101868.91;5015119;28;20384;-93
2021/10/10 05:22:28;;;;;;;19.05;13.20;;;;;;;19.31;68.49;101864.91;5015297;28;20026;-93
2021/10/10 05:24:57;;;;;;;21.73;13.70;;;;;;;19.31;68.56;101860.44;5014948;28;20495;-92
2021/10/10 05:27:24;;;;;;;23.65;13.68;;;;;;;19.32;68.71;101869.28;4997435;28;20507;-92
2021/10/10 05:29:49;;;;;;;18.00;11.93;;;;;;;19.29;68.77;101862.38;5014980;28;20068;-92
2021/10/10 05:32:14;;;;;;;26.63;14.05;;;;;;;19.29;68.69;101865.03;5015034;28;20405;-93
2021/10/10 05:34:40;;;;;;;19.23;12.75;;;;;;;19.34;68.59;101860.19;5015145;28;20022;-93
2021/10/10 05:37:05;;;;;;;21.00;13.13;;;;;;;19.34;68.51;101875.31;5013686;28;20076;-92
2021/10/10 05:39:31;;;;;;;21.42;13.38;;;;;;;19.29;68.70;101873.00;4997332;28;20076;-94
2021/10/10 05:41:56;;;;;;;22.33;13.50;;;;;;;19.22;68.93;101872.69;5014849;28;20024;-93
2021/10/10 05:44:22;;;;;;;19.80;13.18;;;;;;;19.27;68.76;101874.97;5014831;28;20072;-93
2021/10/10 05:46:47;;;;;;;18.73;12.52;;;;;;;19.23;68.52;101878.84;5015319;28;20022;-94
2021/10/10 05:49:13;;;;;;;19.77;13.10;;;;;;;19.20;68.74;101885.28;4997416;28;20030;-93
2021/10/10 05:51:38;;;;;;;17.75;12.15;;;;;;;19.24;68.59;101882.38;5013724;28;20109;-93
2021/10/10 05:54:05;;;;;;;18.30;12.57;;;;;;;19.17;68.66;101879.34;4997185;28;20454;-93
2021/10/10 05:56:33;;;;;;;19.77;13.80;;;;;;;19.20;68.43;101887.09;5014580;28;20033;-94
2021/10/10 05:59:04;;;;;;;17.35;12.13;;;;;;;19.21;68.29;101886.97;5014486;28;20022;-93
2021/10/10 06:01:29;;;;;;;19.60;13.88;;;;;;;19.16;68.65;101883.84;5014466;28;20045;-92
2021/10/10 06:03:55;;;;;;;18.83;13.75;;;;;;;19.11;68.89;101887.84;4996702;28;20065;-93
2021/10/10 06:06:20;;;;;;;23.75;14.63;;;;;;;19.05;69.60;101896.31;4996553;28;20053;-93
2021/10/10 06:08:45;;;;;;;25.33;12.75;;;;;;;19.06;69.80;101901.53;4996987;28;20033;-94
2021/10/10 06:11:11;;;;;;;23.27;13.68;;;;;;;19.11;69.50;101901.16;4997203;28;20064;-93
2021/10/10 06:13:38;;;;;;;17.92;11.82;;;;;;;19.14;69.49;101900.91;5013339;28;20037;-93
2021/10/10 06:16:05;;;;;;;21.33;14.50;;;;;;;19.06;69.82;101898.03;4996577;28;20050;-93
2021/10/10 06:18:30;;;;;;;20.38;14.02;;;;;;;19.06;70.34;101904.19;4996728;28;20036;-93
2021/10/10 06:20:56;;;;;;;21.17;14.57;;;;;;;18.99;70.22;101898.50;5014230;28;20476;-93
2021/10/10 06:23:21;;;;;;;19.27;12.48;;;;;;;19.12;69.82;101902.84;5013186;28;20028;-94
2021/10/10 06:25:46;;;;;;;23.75;13.88;;;;;;;19.14;69.66;101900.91;5014022;28;20392;-93
2021/10/10 06:28:11;;;;;;;22.42;13.90;;;;;;;19.15;69.52;101899.94;5014208;28;20018;-94
2021/10/10 06:30:37;;;;;;;21.73;13.10;;;;;;;19.11;69.51;101901.16;4996506;28;20069;-93
2021/10/10 06:33:02;;;;;;;22.50;12.90;;;;;;;19.10;70.04;101907.47;4996575;28;20033;-93
2021/10/10 06:35:28;;;;;;;18.23;13.25;;;;;;;18.98;70.14;101902.13;5012484;28;20056;-93
2021/10/10 06:37:53;;;;;;;15.73;11.68;;;;;;;19.08;69.51;101898.75;5013827;28;20093;-93
2021/10/10 06:40:18;;;;;;;18.30;12.02;;;;;;;19.10;69.42;101900.31;4996280;28;20128;-94
2021/10/10 06:42:44;;;;;;;13.82;11.00;;;;;;;19.12;69.46;101908.19;4996156;28;20068;-94
2021/10/10 06:45:09;;;;;;;18.15;11.32;;;;;;;19.06;70.14;101906.84;4996066;28;20026;-93
2021/10/10 06:47:36;;;;;;;16.30;10.65;;;;;;;19.22;69.24;101909.13;4996280;28;20495;-93
2021/10/10 06:50:03;;;;;;;14.70;10.25;;;;;;;19.19;69.39;101910.22;5011531;28;20096;-93
2021/10/10 06:52:28;;;;;;;16.55;10.50;;;;;;;19.15;69.23;101908.75;4996009;28;20036;-93
2021/10/10 06:54:54;;;;;;;14.75;10.82;;;;;;;19.16;69.04;101905.13;4996206;28;20018;-94
2021/10/10 06:57:19;;;;;;;14.57;9.63;;;;;;;19.26;68.80;101918.56;4997512;28;20030;-95
2021/10/10 06:59:44;;;;;;;14.32;9.43;;;;;;;19.25;68.75;101913.34;5013898;28;20030;-93
2021/10/10 07:02:11;;;;;;;18.25;10.77;;;;;;;19.22;68.78;101922.44;5011741;28;20026;-93
2021/10/10 07:04:37;;;;;;;14.52;10.60;;;;;;;19.24;68.46;101928.47;4995100;28;20026;-94
2021/10/10 07:07:02;;;;;;;17.88;11.13;;;;;;;19.23;68.82;101916.13;4995335;28;20072;-92
2021/10/10 07:09:28;;;;;;;18.27;10.88;;;;;;;19.26;68.27;101915.88;5013706;28;20575;-93
2021/10/10 07:11:53;;;;;;;13.88;10.63;;;;;;;19.24;68.30;101928.47;5012469;28;20026;-94
2021/10/10 07:14:19;;;;;;;13.38;9.30;;;;;;;19.39;68.17;101927.25;5012476;28;20026;-92
2021/10/10 07:16:44;;;;;;;14.07;8.90;;;;;;;19.36;68.20;101926.66;5012045;28;20122;-92
2021/10/10 07:19:10;;;;;;;12.43;8.98;;;;;;;19.56;67.67;101933.00;5007832;28;20026;-92
2021/10/10 07:21:41;;;;;;;13.77;9.68;;;;;;;19.62;67.43;101935.16;5012285;28;20026;-93
2021/10/10 07:26:33;;;;;;;14.30;8.80;;;;;;;19.39;67.99;101940.56;5012547;28;20022;-93
2021/10/10 07:28:59;;;;;;;14.18;8.23;;;;;;;19.42;67.79;101937.63;5012612;28;20103;-92
2021/10/10 07:31:24;;;;;;;14.15;8.52;;;;;;;19.40;68.16;101936.91;5011928;28;20373;-92
2021/10/10 07:33:50;;;;;;;14.35;8.90;;;;;;;19.35;68.40;101936.47;5012372;28;20083;-92
2021/10/10 07:36:15;;;;;;;11.90;8.52;;;;;;;19.50;67.86;101944.16;5012649;28;20026;-92
2021/10/10 07:38:41;;;;;;;12.30;8.07;;;;;;;19.42;67.49;101939.47;4994890;28;20551;-92
2021/10/10 07:41:06;;;;;;;15.57;8.75;;;;;;;19.53;67.54;101949.22;5012042;28;20295;-93
2021/10/10 07:43:32;;;;;;;12.70;8.23;;;;;;;19.55;67.55;101944.63;4994030;28;20404;-92
2021/10/10 07:46:06;;;;;;;11.95;8.10;;;;;;;19.44;67.88;101944.66;5014242;28;20025;-94
2021/10/10 07:48:34;;;;;;;10.15;7.43;;;;;;;19.52;67.88;101952.88;5010041;28;20464;-93
2021/10/10 07:50:59;;;;;;;10.07;7.35;;;;;;;19.79;66.87;101955.97;4994589;28;20499;-93
2021/10/10 07:53:24;;;;;;;11.55;7.53;;;;;;;20.01;66.18;101957.69;4996665;28;20109;-93
2021/10/10 07:55:50;;;;;;;12.88;8.57;;;;;;;20.04;65.96;101961.91;4995277;28;20503;-93
2021/10/10 07:58:15;;;;;;;13.02;7.88;;;;;;;19.99;65.46;101956.97;5002271;28;20076;-94
2021/10/10 08:00:41;;;;;;;13.70;8.55;;;;;;;20.14;65.32;101965.53;4992476;28;20041;-93
2021/10/10 08:03:06;;;;;;;15.23;8.25;;;;;;;20.23;65.27;101968.41;4973975;28;20026;-94
2021/10/10 08:05:39;;;;;;;16.13;9.30;;;;;;;20.30;65.54;101980.22;4991295;28;20023;-95
2021/10/10 08:08:05;;;;;;;13.05;8.10;;;;;;;19.81;66.54;101975.34;4978011;28;20113;-94
2021/10/10 08:10:30;;;;;;;9.90;7.55;;;;;;;19.93;66.00;101983.31;4993565;28;20109;-95
2021/10/10 08:12:57;;;;;;;11.85;7.88;;;;;;;19.93;66.10;101984.16;4994276;28;20045;-95
2021/10/10 08:15:22;;;;;;;12.10;7.35;;;;;;;19.97;65.67;101982.09;4994598;28;20076;-94
2021/10/10 08:17:48;;;;;;;10.18;5.82;;;;;;;20.02;64.58;101990.53;4995281;28;20072;-94
2021/10/10 08:20:13;;;;;;;7.03;5.82;;;;;;;20.00;64.70;101984.47;5012251;28;20030;-94
2021/10/10 08:22:39;;;;;;;11.90;6.50;;;;;;;20.01;64.62;101995.03;4995235;28;20050;-95
2021/10/10 08:25:08;;;;;;;9.68;5.80;;;;;;;20.48;64.47;101986.69;4975694;28;20019;-96
2021/10/10 08:27:37;;;;;;;10.77;6.45;;;;;;;21.35;61.67;101996.97;4975482;28;20069;-95
2021/10/10 08:30:04;;;;;;;14.40;6.28;;;;;;;22.63;59.41;101988.06;4975105;28;20026;-95
2021/10/10 08:32:30;;;;;;;8.02;5.80;;;;;;;23.78;55.88;101988.69;4990544;28;20472;-94
2021/10/10 08:34:55;;;;;;;6.22;5.10;;;;;;;24.95;52.26;101988.38;4994928;28;20071;-94
2021/10/10 08:37:20;;;;;;;9.52;4.93;;;;;;;25.98;50.11;101987.38;5011131;28;20029;-94
2021/10/10 08:39:46;;;;;;;4.93;3.83;;;;;;;26.67;48.38;101998.63;5011725;28;20064;-94
2021/10/10 08:42:13;;;;;;;6.15;3.67;;;;;;;27.20;46.44;101993.56;4993755;28;20025;-95
2021/10/10 08:44:43;;;;;;;5.78;3.60;;;;;;;27.32;45.10;102002.97;4994137;28;20022;-95
2021/10/10 08:47:15;;;;;;;4.43;3.30;;;;;;;28.33;43.90;101987.59;4993794;28;20022;-93
2021/10/10 08:49:40;;;;;;;4.15;3.20;;;;;;;28.38;41.92;101995.16;4994498;28;20022;-94
2021/10/10 08:52:14;;;;;;;12.20;4.53;;;;;;;27.37;43.82;102007.81;4993972;28;20370;-94
2021/10/10 08:54:41;;;;;;;6.70;3.78;;;;;;;27.16;43.71;102006.53;4994328;28;20037;-94
2021/10/10 08:57:10;;;;;;;6.40;3.40;;;;;;;26.86;44.66;102000.94;5011710;28;20026;-93
2021/10/10 08:59:45;;;;;;;4.35;3.53;;;;;;;26.57;45.62;102001.47;5010928;28;20112;-92
2021/10/10 09:02:18;;;;;;;6.15;3.10;;;;;;;26.40;45.24;102015.97;5011157;28;20021;-93
2021/10/10 09:04:44;;;;;;;4.95;2.85;;;;;;;25.30;47.14;102006.22;4992716;28;20060;-94
2021/10/10 09:07:09;;;;;;;5.70;3.25;;;;;;;24.89;47.68;102013.22;4992823;28;20030;-93
2021/10/10 09:09:36;;;;;;;4.20;2.65;;;;;;;25.27;47.14;102011.88;4993732;28;20392;-94
2021/10/10 09:12:12;;;;;;;5.13;3.17;;;;;;;26.39;45.67;102014.31;4993931;28;20134;-94
2021/10/10 09:14:49;;;;;;;4.03;2.05;;;;;;;27.60;42.68;102027.59;4998027;28;20377;-93
2021/10/10 09:17:23;;;;;;;2.30;1.58;;;;;;;28.40;40.38;102018.25;5014765;28;20030;-94
2021/10/10 09:19:58;;;;;;;2.17;1.42;;;;;;;28.91;39.66;102025.72;5012691;28;20029;-95
2021/10/10 09:22:24;;;;;;;2.78;1.73;;;;;;;28.06;39.91;102018.69;5019834;28;20057;-96
2021/10/10 09:24:51;;;;;;;2.70;1.35;;;;;;;27.75;40.33;102024.16;5002056;28;20049;-94
2021/10/10 09:27:17;;;;;;;3.13;1.42;;;;;;;27.02;41.39;102013.50;4998678;28;20030;-92
2021/10/10 09:29:46;;;;;;;4.82;1.67;;;;;;;27.39;41.11;102016.56;5013920;28;20116;-92
2021/10/10 09:32:20;;;;;;;5.28;1.70;;;;;;;27.78;40.96;102012.97;5013597;28;20025;-94
2021/10/10 09:34:49;;;;;;;6.43;1.52;;;;;;;27.84;41.00;102020.34;5013870;28;20475;-92
2021/10/10 09:37:25;;;;;;;4.93;1.73;;;;;;;28.49;39.13;102014.44;5014601;28;20022;-94
2021/10/10 09:42:44;;;;;;;5.78;1.83;;;;;;;29.01;38.71;102030.81;5016476;28;20029;-92
2021/10/10 09:45:13;;;;;;;1.85;0.90;;;;;;;29.69;36.79;102022.53;5030621;28;20488;-94
2021/10/10 09:47:54;;;;;;;4.85;1.55;;;;;;;30.32;36.37;102029.00;5017816;28;20027;-94
2021/10/10 09:50:20;;;;;;;6.22;1.63;;;;;;;30.75;35.63;102023.47;4987831;28;20040;-95
2021/10/10 09:52:45;;;;;;;3.83;1.23;;;;;;;30.72;34.97;102033.88;5010089;28;20032;-94
2021/10/10 09:55:12;;;;;;;3.90;1.10;;;;;;;30.99;34.31;102018.63;4997352;28;20120;-94
2021/10/10 09:57:47;;;;;;;3.80;1.20;;;;;;;30.96;34.80;102029.88;4996402;28;20117;-96
2021/10/10 10:00:24;;;;;;;3.13;1.08;;;;;;;31.63;33.41;102031.00;5004728;28;20415;-95
2021/10/10 10:02:51;;;;;;;2.63;1.02;;;;;;;31.85;32.89;102034.38;5013983;28;20038;-96
2021/10/10 10:05:25;;;;;;;6.35;1.10;;;;;;;31.41;33.29;102033.81;5013506;28;20040;-95
2021/10/10 10:07:52;;;;;;;2.83;0.93;;;;;;;31.01;33.71;102028.25;5001234;28;20029;-96
2021/10/10 10:10:18;;;;;;;3.70;1.42;;;;;;;31.32;33.32;102023.34;5030535;28;20710;-96
2021/10/10 10:12:44;;;;;;;3.75;1.27;;;;;;;31.50;33.32;102031.81;4997211;28;20046;-96
2021/10/10 10:15:10;;;;;;;2.42;0.90;;;;;;;31.17;33.98;102020.81;4997017;28;20026;-96
2021/10/10 10:17:37;;;;;;;2.55;0.73;;;;;;;31.69;33.06;102032.88;4998339;28;20476;-95
2021/10/10 10:20:04;;;;;;;3.42;0.75;;;;;;;31.71;33.28;102033.53;5018021;28;20602;-96
2021/10/10 10:22:36;;;;;;;2.75;0.70;;;;;;;32.28;32.71;102027.75;4997284;28;20026;-95
2021/10/10 10:25:06;;;;;;;3.65;0.75;;;;;;;32.30;32.13;102026.50;4996935;28;20033;-96
2021/10/10 10:27:32;;;;;;;1.60;0.63;;;;;;;32.21;32.14;102033.22;5001454;28;20057;-95
2021/10/10 10:29:59;;;;;;;2.80;0.68;;;;;;;32.49;31.94;102030.25;5020178;28;20030;-95
2021/10/10 10:32:28;;;;;;;3.35;0.85;;;;;;;32.15;31.19;102024.00;5016044;28;20026;-95
2021/10/10 10:35:04;;;;;;;3.20;0.80;;;;;;;32.38;31.53;102029.00;5005474;28;20075;-96
2021/10/10 10:37:41;;;;;;;3.45;0.82;;;;;;;32.23;31.15;102025.69;5024627;28;20029;-96
2021/10/10 10:40:16;;;;;;;3.03;0.50;;;;;;;32.89;31.31;102018.50;5003289;28;20034;-96
2021/10/10 10:42:43;;;;;;;3.53;0.85;;;;;;;33.03;31.25;102031.00;5010362;28;20414;-96
2021/10/10 10:45:29;;;;;;;2.55;0.75;;;;;;;32.58;30.99;102022.75;4999981;28;20026;-96
2021/10/10 10:47:58;;;;;;;1.63;0.50;;;;;;;32.73;31.69;102020.63;4997487;28;20030;-95
2021/10/10 10:50:37;;;;;;;4.68;0.80;;;;;;;32.91;31.24;102021.84;5000547;28;20053;-96
2021/10/10 10:53:08;;;;;;;3.92;0.88;;;;;;;33.32;30.51;102018.75;5009065;28;20036;-96
2021/10/10 10:55:34;;;;;;;2.50;0.50;;;;;;;32.52;31.42;102008.06;4998475;28;20018;-96
2021/10/10 10:58:13;;;;;;;2.40;0.80;;;;;;;32.27;31.73;102013.34;5000619;28;20084;-96
2021/10/10 11:00:43;;;;;;;1.95;0.80;;;;;;;31.88;31.90;102012.25;5016244;28;20034;-96
2021/10/10 11:03:24;;;;;;;2.78;0.70;;;;;;;32.18;32.23;102006.44;5000534;28;20022;-94
2021/10/10 11:05:54;;;;;;;0.77;0.47;;;;;;;32.00;32.70;102010.63;5018837;28;20030;-95
2021/10/10 11:08:26;;;;;;;3.50;1.00;;;;;;;31.70;33.05;102012.84;4995671;28;20033;-93
2021/10/10 11:11:03;;;;;;;2.78;0.70;;;;;;;32.16;32.41;102005.81;4999736;28;20033;-94
2021/10/10 11:13:45;;;;;;;1.58;0.63;;;;;;;32.14;32.07;102006.03;5012205;28;20026;-96
2021/10/10 11:16:15;;;;;;;2.65;0.90;;;;;;;32.73;30.88;102004.31;4999494;28;20549;-95
2021/10/10 11:18:46;;;;;;;3.08;0.73;;;;;;;32.89;30.51;102002.16;5016498;28;20046;-95
2021/10/10 11:21:14;;;;;;;1.45;0.68;;;;;;;32.83;31.88;102006.56;4996353;28;20038;-95